createdAt,value
2023-04-16T00:00:42.335Z,3.35
2023-04-16T00:02:15.109Z,3.80
2023-04-16T00:03:47.359Z,3.78
2023-04-16T00:05:19.451Z,4.65
2023-04-16T00:06:51.289Z,3.85
2023-04-16T00:08:26.648Z,4.25
2023-04-16T00:09:58.485Z,5.05
2023-04-16T00:11:30.359Z,4.80
2023-04-16T00:13:02.231Z,4.15
2023-04-16T00:14:34.195Z,4.83
2023-04-16T00:16:06.501Z,4.60
2023-04-16T00:17:38.452Z,4.63
2023-04-16T00:19:10.912Z,4.60
2023-04-16T00:20:42.935Z,4.40
2023-04-16T00:22:14.776Z,5.65
2023-04-16T00:23:46.838Z,5.00
2023-04-16T00:25:18.664Z,5.22
2023-04-16T00:26:50.622Z,5.15
2023-04-16T00:28:22.515Z,5.40
2023-04-16T00:29:54.376Z,4.63
2023-04-16T00:31:28.317Z,4.53
2023-04-16T00:33:01.418Z,4.88
2023-04-16T00:34:33.451Z,5.13
2023-04-16T00:36:05.891Z,5.28
2023-04-16T00:37:37.698Z,4.97
2023-04-16T00:39:09.757Z,4.95
2023-04-16T00:40:41.793Z,4.82
2023-04-16T00:42:13.671Z,5.83
2023-04-16T00:43:45.820Z,4.07
2023-04-16T00:45:17.826Z,5.03
2023-04-16T00:46:49.721Z,4.97
2023-04-16T00:48:21.910Z,4.90
2023-04-16T00:49:53.800Z,5.85
2023-04-16T00:51:25.687Z,4.90
2023-04-16T00:52:57.649Z,5.80
2023-04-16T00:54:30.030Z,5.28
2023-04-16T00:56:06.974Z,4.80
2023-04-16T00:57:39.246Z,5.45
2023-04-16T00:59:11.921Z,5.93
2023-04-16T01:00:43.803Z,5.28
2023-04-16T01:02:16.493Z,7.03
2023-04-16T01:03:49.558Z,5.80
2023-04-16T01:05:21.558Z,6.72
2023-04-16T01:06:53.436Z,6.05
2023-04-16T01:08:25.537Z,8.45
2023-04-16T01:09:57.477Z,6.93
2023-04-16T01:11:29.332Z,6.47
2023-04-16T01:13:01.249Z,6.75
2023-04-16T01:14:36.559Z,7.23
2023-04-16T01:16:10.711Z,6.70
2023-04-16T01:17:45.930Z,7.10
2023-04-16T01:19:17.787Z,6.70
2023-04-16T01:20:52.695Z,7.65
2023-04-16T01:22:24.713Z,6.95
2023-04-16T01:23:56.557Z,6.63
2023-04-16T01:25:28.450Z,7.45
2023-04-16T01:27:00.418Z,6.40
2023-04-16T01:28:32.329Z,6.60
2023-04-16T01:30:05.315Z,6.82
2023-04-16T01:33:29.588Z,6.03
2023-04-16T01:35:01.612Z,7.67
2023-04-16T01:36:33.476Z,7.15
2023-04-16T01:38:06.187Z,7.10
2023-04-16T01:39:38.036Z,7.47
2023-04-16T01:41:09.960Z,7.78
2023-04-16T01:42:41.775Z,6.32
2023-04-16T01:44:14.032Z,6.78
2023-04-16T01:45:47.451Z,7.40
2023-04-16T01:47:19.484Z,5.55
2023-04-16T01:48:54.881Z,7.05
2023-04-16T01:50:27.281Z,6.28
2023-04-16T01:51:59.323Z,7.10
2023-04-16T01:53:31.279Z,7.38
2023-04-16T01:55:03.854Z,6.40
2023-04-16T01:56:35.911Z,6.70
2023-04-16T01:58:10.800Z,6.37
2023-04-16T01:59:45.723Z,8.07
2023-04-16T02:01:17.696Z,7.45
2023-04-16T02:02:51.072Z,6.80
2023-04-16T02:04:30.648Z,6.82
2023-04-16T02:06:02.585Z,7.00
2023-04-16T02:07:34.428Z,7.78
2023-04-16T02:09:06.366Z,7.35
2023-04-16T02:10:38.433Z,7.55
2023-04-16T02:12:12.064Z,6.60
2023-04-16T02:13:43.918Z,6.93
2023-04-16T02:15:16.594Z,7.55
2023-04-16T02:16:49.032Z,7.32
2023-04-16T02:18:41.046Z,7.78
2023-04-16T02:20:13.147Z,7.63
2023-04-16T02:21:53.491Z,7.97
2023-04-16T02:23:25.356Z,7.72
2023-04-16T02:24:57.440Z,8.82
2023-04-16T02:26:29.973Z,8.70
2023-04-16T02:28:07.619Z,8.75
2023-04-16T02:29:43.196Z,8.90
2023-04-16T02:31:19.892Z,8.05
2023-04-16T02:32:53.259Z,8.88
2023-04-16T02:34:25.933Z,7.78
2023-04-16T02:35:58.302Z,8.10
2023-04-16T02:37:30.236Z,8.75
2023-04-16T02:39:02.229Z,9.27
2023-04-16T02:40:34.158Z,8.37
2023-04-16T02:42:06.121Z,9.03
2023-04-16T02:43:38.077Z,8.40
2023-04-16T02:45:10.637Z,10.13
2023-04-16T02:46:42.505Z,9.13
2023-04-16T02:48:23.449Z,8.57
2023-04-16T02:49:55.429Z,9.00
2023-04-16T02:51:27.963Z,9.13
2023-04-16T02:52:59.975Z,8.90
2023-04-16T02:54:31.899Z,10.57
2023-04-16T02:56:03.892Z,9.10
2023-04-16T02:57:35.942Z,9.00
2023-04-16T02:59:08.167Z,9.07
2023-04-16T03:00:40.251Z,9.98
2023-04-16T03:02:12.308Z,9.77
2023-04-16T03:03:44.389Z,9.82
2023-04-16T03:05:16.444Z,10.10
2023-04-16T03:06:48.512Z,10.48
2023-04-16T03:08:20.841Z,9.90
2023-04-16T03:09:52.832Z,10.35
2023-04-16T03:11:24.764Z,11.40
2023-04-16T03:12:56.681Z,11.15
2023-04-16T03:14:28.750Z,11.75
2023-04-16T03:16:00.808Z,11.18
2023-04-16T03:17:32.770Z,10.90
2023-04-16T03:19:04.665Z,12.30
2023-04-16T03:20:36.511Z,10.48
2023-04-16T03:22:08.586Z,10.77
2023-04-16T03:23:40.648Z,10.90
2023-04-16T03:25:19.366Z,11.25
2023-04-16T03:26:51.280Z,10.90
2023-04-16T03:28:25.127Z,11.00
2023-04-16T03:29:57.411Z,12.15
2023-04-16T03:31:30.173Z,11.05
2023-04-16T03:33:03.258Z,12.00
2023-04-16T03:34:37.050Z,11.45
2023-04-16T03:36:10.342Z,11.43
2023-04-16T03:37:42.288Z,12.02
2023-04-16T03:39:14.418Z,11.90
2023-04-16T03:40:46.532Z,11.70
2023-04-16T03:42:20.260Z,11.23
2023-04-16T03:43:52.100Z,12.35
2023-04-16T03:45:24.094Z,13.07
2023-04-16T03:46:56.796Z,12.63
2023-04-16T03:48:28.901Z,13.95
2023-04-16T03:50:00.754Z,12.98
2023-04-16T03:51:33.263Z,13.90
2023-04-16T03:53:05.168Z,13.63
2023-04-16T03:54:37.690Z,14.15
2023-04-16T03:56:27.313Z,12.88
2023-04-16T03:58:03.230Z,14.05
2023-04-16T03:59:36.897Z,13.07
2023-04-16T04:01:08.778Z,14.23
2023-04-16T04:02:42.491Z,13.52
2023-04-16T04:04:22.037Z,14.65
2023-04-16T04:05:53.968Z,14.02
2023-04-16T04:07:31.129Z,14.20
2023-04-16T04:09:03.124Z,13.10
2023-04-16T04:10:35.843Z,14.80
2023-04-16T04:12:10.275Z,14.48
2023-04-16T04:13:43.783Z,14.20
2023-04-16T04:15:15.759Z,13.47
2023-04-16T04:16:47.881Z,14.95
2023-04-16T04:18:20.056Z,13.88
2023-04-16T04:20:01.181Z,14.13
2023-04-16T04:21:35.781Z,13.95
2023-04-16T04:23:09.482Z,14.88
2023-04-16T04:24:41.418Z,14.98
2023-04-16T04:26:13.402Z,14.83
2023-04-16T04:27:45.931Z,15.65
2023-04-16T04:29:17.790Z,15.55
2023-04-16T04:30:49.712Z,16.27
2023-04-16T04:32:21.754Z,14.52
2023-04-16T04:33:54.609Z,15.63
2023-04-16T04:35:26.825Z,17.23
2023-04-16T04:36:59.477Z,15.65
2023-04-16T04:38:33.064Z,13.45
2023-04-16T04:40:05.268Z,16.02
2023-04-16T04:41:40.724Z,16.17
2023-04-16T04:43:12.788Z,16.83
2023-04-16T04:44:45.401Z,15.18
2023-04-16T04:46:17.460Z,15.63
2023-04-16T04:47:49.483Z,15.70
2023-04-16T04:49:21.533Z,15.52
2023-04-16T04:50:54.132Z,17.02
2023-04-16T04:52:26.103Z,15.88
2023-04-16T04:53:58.079Z,16.35
2023-04-16T04:55:30.025Z,12.38
2023-04-16T04:57:03.546Z,16.27
2023-04-16T04:58:35.772Z,17.00
2023-04-16T05:00:08.387Z,15.63
2023-04-16T05:01:47.567Z,15.30
2023-04-16T05:03:21.450Z,16.08
2023-04-16T05:04:53.527Z,16.98
2023-04-16T05:06:26.348Z,17.63
2023-04-16T05:07:59.188Z,17.45
2023-04-16T05:09:31.116Z,17.15
2023-04-16T05:11:03.066Z,16.55
2023-04-16T05:12:35.053Z,17.40
2023-04-16T05:14:06.938Z,15.63
2023-04-16T05:15:40.452Z,17.03
2023-04-16T05:17:12.363Z,16.00
2023-04-16T05:18:44.338Z,16.17
2023-04-16T05:20:16.264Z,17.17
2023-04-16T05:21:48.171Z,16.05
2023-04-16T05:23:20.143Z,18.42
2023-04-16T05:24:52.040Z,16.42
2023-04-16T05:26:24.003Z,16.20
2023-04-16T05:27:55.972Z,17.60
2023-04-16T05:29:28.616Z,16.65
2023-04-16T05:31:00.613Z,16.77
2023-04-16T05:32:32.697Z,18.42
2023-04-16T05:34:04.635Z,17.00
2023-04-16T05:35:36.588Z,18.40
2023-04-16T05:37:08.452Z,16.90
2023-04-16T05:38:40.535Z,16.40
2023-04-16T05:40:14.024Z,17.65
2023-04-16T05:41:45.946Z,17.25
2023-04-16T05:43:18.137Z,18.17
2023-04-16T05:44:51.238Z,17.95
2023-04-16T05:46:23.167Z,16.25
2023-04-16T05:47:55.194Z,16.58
2023-04-16T05:49:27.137Z,17.05
2023-04-16T05:50:59.099Z,16.70
2023-04-16T05:52:31.246Z,17.70
2023-04-16T05:54:03.180Z,18.75
2023-04-16T05:55:37.127Z,18.17
2023-04-16T05:57:09.216Z,17.80
2023-04-16T05:58:41.129Z,17.70
2023-04-16T06:00:13.271Z,17.93
2023-04-16T06:01:45.176Z,17.23
2023-04-16T06:03:17.222Z,19.35
2023-04-16T06:04:50.163Z,18.67
2023-04-16T06:07:53.838Z,19.40
2023-04-16T06:09:25.865Z,19.17
2023-04-16T06:10:57.803Z,17.17
2023-04-16T06:12:29.697Z,17.80
2023-04-16T06:14:01.698Z,17.23
2023-04-16T06:15:33.632Z,17.20
2023-04-16T06:17:05.573Z,16.87
2023-04-16T06:18:37.468Z,15.85
2023-04-16T06:20:10.013Z,17.33
2023-04-16T06:21:41.953Z,17.75
2023-04-16T06:23:13.870Z,17.83
2023-04-16T06:24:45.874Z,16.53
2023-04-16T06:26:18.449Z,17.20
2023-04-16T06:27:50.323Z,17.30
2023-04-16T06:29:27.896Z,16.90
2023-04-16T06:32:37.693Z,16.77
2023-04-16T06:34:09.574Z,19.80
2023-04-16T06:35:41.467Z,18.83
2023-04-16T06:37:13.399Z,17.40
2023-04-16T06:38:45.394Z,17.50
2023-04-16T06:40:17.409Z,18.10
2023-04-16T06:41:49.453Z,18.75
2023-04-16T06:43:22.940Z,18.38
2023-04-16T06:44:54.865Z,18.37
2023-04-16T06:46:26.794Z,16.92
2023-04-16T06:48:01.812Z,18.17
2023-04-16T06:49:33.841Z,17.63
2023-04-16T06:51:05.864Z,18.00
2023-04-16T06:52:37.806Z,18.13
2023-04-16T06:54:09.770Z,18.80
2023-04-16T06:55:41.779Z,17.77
2023-04-16T06:57:13.787Z,16.65
2023-04-16T06:58:45.801Z,16.75
2023-04-16T07:00:18.029Z,17.08
2023-04-16T07:01:50.097Z,17.48
2023-04-16T07:03:22.239Z,17.90
2023-04-16T07:04:54.246Z,17.58
2023-04-16T07:06:27.367Z,17.63
2023-04-16T07:07:59.674Z,17.73
2023-04-16T07:09:31.693Z,17.13
2023-04-16T07:11:03.685Z,17.73
2023-04-16T07:12:35.635Z,17.33
2023-04-16T07:14:07.666Z,17.70
2023-04-16T07:15:39.733Z,16.98
2023-04-16T07:17:11.625Z,16.20
2023-04-16T07:18:43.742Z,18.10
2023-04-16T07:20:16.302Z,16.85
2023-04-16T07:21:48.220Z,16.55
2023-04-16T07:23:20.153Z,16.87
2023-04-16T07:24:52.129Z,19.07
2023-04-16T07:26:24.110Z,17.35
2023-04-16T07:27:56.011Z,17.88
2023-04-16T07:29:27.910Z,18.03
2023-04-16T07:31:00.160Z,17.30
2023-04-16T07:32:32.074Z,17.20
2023-04-16T07:34:04.098Z,17.45
2023-04-16T07:35:36.316Z,16.88
2023-04-16T07:37:09.462Z,18.77
2023-04-16T07:38:41.524Z,18.55
2023-04-16T07:40:13.470Z,17.20
2023-04-16T07:41:45.689Z,16.70
2023-04-16T07:43:17.636Z,18.58
2023-04-16T07:44:49.587Z,17.47
2023-04-16T07:46:22.175Z,18.42
2023-04-16T07:47:54.279Z,16.52
2023-04-16T07:49:26.215Z,16.38
2023-04-16T07:50:58.213Z,17.17
2023-04-16T07:52:30.193Z,19.15
2023-04-16T07:54:02.291Z,18.45
2023-04-16T07:55:34.271Z,17.83
2023-04-16T07:57:06.222Z,13.32
2023-04-16T07:58:38.081Z,17.25
2023-04-16T08:00:11.033Z,17.57
2023-04-16T08:01:45.770Z,16.95
2023-04-16T08:03:18.483Z,16.80
2023-04-16T08:06:22.767Z,16.70
2023-04-16T08:07:54.681Z,17.48
2023-04-16T08:09:28.126Z,18.10
2023-04-16T08:11:00.390Z,16.95
2023-04-16T08:12:32.454Z,17.65
2023-04-16T08:14:04.421Z,17.83
2023-04-16T08:15:36.456Z,16.77
2023-04-16T08:17:08.474Z,17.33
2023-04-16T08:18:40.581Z,18.95
2023-04-16T08:20:15.716Z,18.33
2023-04-16T08:21:49.759Z,17.58
2023-04-16T08:23:21.891Z,19.00
2023-04-16T08:24:53.851Z,16.85
2023-04-16T08:26:25.820Z,17.70
2023-04-16T08:27:57.687Z,19.30
2023-04-16T08:29:29.680Z,18.13
2023-04-16T08:31:01.705Z,18.77
2023-04-16T08:32:33.856Z,18.88
2023-04-16T08:34:06.053Z,17.15
2023-04-16T08:35:37.972Z,17.77
2023-04-16T08:37:10.403Z,18.43
2023-04-16T08:38:42.340Z,19.45
2023-04-16T08:40:14.279Z,17.43
2023-04-16T08:41:47.519Z,19.33
2023-04-16T08:43:19.700Z,17.08
2023-04-16T08:44:53.984Z,18.42
2023-04-16T08:46:28.771Z,17.60
2023-04-16T08:48:01.158Z,17.00
2023-04-16T08:49:34.491Z,17.63
2023-04-16T08:51:09.923Z,17.23
2023-04-16T08:52:53.016Z,17.63
2023-04-16T08:54:56.671Z,18.13
2023-04-16T08:58:02.023Z,17.40
2023-04-16T08:59:34.673Z,17.70
2023-04-16T09:01:06.969Z,17.02
2023-04-16T09:02:39.570Z,16.70
2023-04-16T09:04:12.067Z,15.50
2023-04-16T09:05:44.293Z,16.23
2023-04-16T09:07:17.265Z,16.73
2023-04-16T09:10:21.336Z,16.98
2023-04-16T09:11:54.030Z,18.75
2023-04-16T09:13:26.163Z,17.25
2023-04-16T09:15:01.357Z,16.58
2023-04-16T09:16:34.487Z,17.50
2023-04-16T09:18:06.582Z,17.10
2023-04-16T09:19:38.464Z,18.00
2023-04-16T09:21:11.431Z,18.25
2023-04-16T09:22:43.919Z,18.90
2023-04-16T09:24:16.087Z,18.33
2023-04-16T09:25:48.042Z,16.65
2023-04-16T09:27:20.451Z,16.48
2023-04-16T09:28:52.447Z,18.05
2023-04-16T09:30:28.527Z,18.58
2023-04-16T09:32:10.909Z,17.33
2023-04-16T09:33:43.740Z,17.63
2023-04-16T09:35:16.118Z,18.25
2023-04-16T09:36:48.065Z,18.10
2023-04-16T09:38:20.943Z,15.80
2023-04-16T09:41:31.664Z,17.05
2023-04-16T09:43:11.219Z,16.63
2023-04-16T09:44:43.193Z,16.58
2023-04-16T09:46:15.234Z,17.55
2023-04-16T09:47:51.022Z,17.63
2023-04-16T09:49:23.005Z,18.10
2023-04-16T09:50:54.966Z,15.90
2023-04-16T09:52:26.957Z,16.77
2023-04-16T09:53:59.075Z,17.13
2023-04-16T09:55:31.209Z,17.25
2023-04-16T09:57:03.886Z,16.80
2023-04-16T09:58:38.739Z,17.13
2023-04-16T10:00:11.660Z,16.52
2023-04-16T10:01:43.972Z,17.08
2023-04-16T10:03:16.125Z,16.83
2023-04-16T10:04:50.190Z,17.45
2023-04-16T10:06:24.059Z,16.52
2023-04-16T10:08:00.805Z,16.33
2023-04-16T10:09:33.771Z,17.58
2023-04-16T10:11:06.080Z,17.77
2023-04-16T10:12:38.114Z,15.48
2023-04-16T10:14:10.021Z,16.40
2023-04-16T10:15:42.362Z,16.10
2023-04-16T10:17:14.618Z,15.70
2023-04-16T10:18:47.692Z,16.05
2023-04-16T10:20:20.031Z,15.77
2023-04-16T10:21:52.288Z,16.13
2023-04-16T10:23:24.198Z,17.35
2023-04-16T10:24:56.305Z,16.40
2023-04-16T10:26:30.857Z,16.33
2023-04-16T10:28:03.490Z,16.08
2023-04-16T10:29:36.427Z,16.90
2023-04-16T10:32:45.178Z,16.25
2023-04-16T10:34:17.601Z,16.73
2023-04-16T10:36:01.201Z,17.92
2023-04-16T10:37:41.321Z,17.92
2023-04-16T10:39:16.880Z,14.75
2023-04-16T10:40:49.319Z,15.50
2023-04-16T10:42:22.049Z,16.70
2023-04-16T10:43:54.587Z,15.88
2023-04-16T10:45:37.787Z,16.25
2023-04-16T10:48:49.789Z,15.13
2023-04-16T10:50:22.504Z,14.75
2023-04-16T10:51:56.238Z,15.25
2023-04-16T10:53:28.270Z,13.52
2023-04-16T10:55:01.252Z,13.38
2023-04-16T10:56:33.888Z,14.68
2023-04-16T10:58:29.665Z,13.82
2023-04-16T11:00:01.718Z,12.00
2023-04-16T11:01:38.717Z,13.48
2023-04-16T11:03:10.920Z,13.15
2023-04-16T11:04:45.400Z,11.48
2023-04-16T11:06:24.808Z,11.65
2023-04-16T11:07:56.745Z,12.48
2023-04-16T11:09:50.015Z,11.87
2023-04-16T11:11:22.399Z,11.95
2023-04-16T11:12:54.892Z,13.07
2023-04-16T11:14:27.871Z,13.63
2023-04-16T11:16:00.232Z,13.38
2023-04-16T11:17:39.929Z,14.82
2023-04-16T11:19:16.944Z,13.88
2023-04-16T11:20:48.966Z,14.43
2023-04-16T11:22:22.383Z,13.13
2023-04-16T11:23:54.621Z,13.23
2023-04-16T11:25:30.059Z,14.50
2023-04-16T11:27:02.136Z,17.15
2023-04-16T11:28:35.064Z,19.60
2023-04-16T11:30:11.530Z,15.82
2023-04-16T11:31:50.966Z,14.30
2023-04-16T11:33:23.067Z,14.40
2023-04-16T11:34:55.201Z,15.48
2023-04-16T11:36:27.921Z,13.95
2023-04-16T11:39:31.889Z,14.98
2023-04-16T11:41:04.169Z,15.30
2023-04-16T11:42:44.562Z,14.98
2023-04-16T11:44:23.980Z,14.77
2023-04-16T11:46:16.652Z,16.98
2023-04-16T11:47:58.259Z,19.80
2023-04-16T11:49:30.966Z,19.85
2023-04-16T11:51:03.356Z,16.00
2023-04-16T11:52:36.723Z,15.25
2023-04-16T11:54:11.657Z,16.17
2023-04-16T11:55:45.881Z,14.43
2023-04-16T11:57:27.678Z,14.93
2023-04-16T11:59:26.414Z,15.27
2023-04-16T12:01:00.139Z,15.98
2023-04-16T12:02:35.914Z,16.10
2023-04-16T12:04:08.936Z,16.42
2023-04-16T12:05:41.088Z,14.88
2023-04-16T12:07:14.284Z,16.95
2023-04-16T12:08:46.402Z,17.08
2023-04-16T12:10:18.302Z,15.85
2023-04-16T12:11:50.218Z,15.50
2023-04-16T12:13:22.180Z,15.40
2023-04-16T12:14:54.930Z,15.30
2023-04-16T12:16:27.607Z,14.90
2023-04-16T12:19:58.829Z,14.13
2023-04-16T12:21:38.170Z,14.00
2023-04-16T12:23:11.551Z,14.23
2023-04-16T12:24:43.485Z,14.30
2023-04-16T12:26:15.828Z,12.25
2023-04-16T12:27:53.855Z,13.80
2023-04-16T12:29:28.025Z,13.80
2023-04-16T12:31:00.207Z,13.57
2023-04-16T12:32:32.299Z,13.32
2023-04-16T12:34:04.380Z,12.00
2023-04-16T12:35:36.536Z,13.75
2023-04-16T12:37:11.296Z,14.23
2023-04-16T12:38:43.272Z,13.88
2023-04-16T12:40:15.332Z,14.93
2023-04-16T12:41:47.320Z,13.88
2023-04-16T12:43:20.071Z,13.82
2023-04-16T12:46:23.970Z,14.13
2023-04-16T12:47:56.178Z,13.73
2023-04-16T12:49:28.223Z,13.07
2023-04-16T12:51:00.204Z,13.95
2023-04-16T12:52:32.137Z,14.17
2023-04-16T12:54:07.794Z,14.07
2023-04-16T12:55:39.714Z,15.52
2023-04-16T12:57:12.308Z,14.27
2023-04-16T12:58:44.278Z,14.07
2023-04-16T13:00:16.722Z,13.57
2023-04-16T13:01:48.820Z,13.80
2023-04-16T13:03:22.058Z,12.80
2023-04-16T13:04:54.638Z,13.82
2023-04-16T13:06:26.726Z,14.77
2023-04-16T13:07:58.681Z,14.33
2023-04-16T13:09:30.702Z,13.20
2023-04-16T13:11:02.652Z,13.88
2023-04-16T13:12:34.612Z,13.52
2023-04-16T13:14:06.718Z,12.93
2023-04-16T13:15:38.698Z,14.48
2023-04-16T13:17:10.746Z,14.02
2023-04-16T13:18:42.773Z,14.85
2023-04-16T13:20:14.695Z,13.33
2023-04-16T13:21:46.615Z,13.83
2023-04-16T13:23:18.700Z,14.03
2023-04-16T13:24:50.647Z,15.18
2023-04-16T13:26:22.625Z,14.23
2023-04-16T13:27:54.571Z,14.02
2023-04-16T13:29:26.570Z,14.73
2023-04-16T13:30:58.569Z,13.65
2023-04-16T13:32:31.106Z,13.93
2023-04-16T13:34:03.883Z,14.95
2023-04-16T13:37:08.024Z,16.33
2023-04-16T13:38:39.989Z,17.65
2023-04-16T13:40:12.032Z,17.77
2023-04-16T13:41:44.062Z,16.15
2023-04-16T13:43:19.129Z,18.55
2023-04-16T13:44:54.335Z,18.05
2023-04-16T13:46:26.803Z,16.55
2023-04-16T13:47:58.933Z,18.58
2023-04-16T13:49:32.649Z,18.13
2023-04-16T13:51:06.606Z,18.17
2023-04-16T13:52:38.552Z,18.05
2023-04-16T13:54:10.592Z,16.97
2023-04-16T13:55:42.992Z,18.80
2023-04-16T13:57:15.140Z,19.13
2023-04-16T13:58:47.084Z,19.30
2023-04-16T14:00:19.899Z,18.10
2023-04-16T14:03:25.791Z,17.80
2023-04-16T14:04:57.777Z,17.60
2023-04-16T14:06:29.711Z,17.23
2023-04-16T14:08:04.761Z,17.17
2023-04-16T14:09:36.830Z,18.33
2023-04-16T14:11:09.457Z,19.08
2023-04-16T14:12:41.556Z,18.60
2023-04-16T14:14:13.460Z,18.30
2023-04-16T14:15:45.462Z,19.53
2023-04-16T14:17:17.327Z,17.80
2023-04-16T14:18:49.354Z,17.17
2023-04-16T14:20:21.522Z,17.75
2023-04-16T14:21:53.528Z,17.58
2023-04-16T14:23:25.437Z,18.77
2023-04-16T14:24:57.397Z,19.10
2023-04-16T14:26:29.409Z,18.33
2023-04-16T14:28:01.598Z,17.52
2023-04-16T14:29:33.536Z,17.65
2023-04-16T14:31:05.485Z,16.83
2023-04-16T14:32:37.560Z,16.53
2023-04-16T14:34:09.570Z,16.23
2023-04-16T14:35:41.624Z,18.08
2023-04-16T14:37:13.584Z,16.63
2023-04-16T14:38:47.683Z,17.23
2023-04-16T14:40:19.729Z,16.20
2023-04-16T14:41:51.653Z,15.48
2023-04-16T14:43:23.631Z,16.50
2023-04-16T14:44:55.787Z,15.88
2023-04-16T14:46:27.772Z,15.70
2023-04-16T14:47:59.737Z,17.33
2023-04-16T14:49:32.702Z,16.90
2023-04-16T14:51:04.814Z,16.58
2023-04-16T14:52:36.819Z,17.55
2023-04-16T14:54:09.214Z,17.67
2023-04-16T14:55:41.221Z,16.55
2023-04-16T14:57:13.206Z,17.25
2023-04-16T14:58:45.177Z,15.55
2023-04-16T15:00:20.546Z,17.13
2023-04-16T15:01:52.992Z,16.77
2023-04-16T15:03:25.803Z,16.35
2023-04-16T15:04:57.866Z,17.05
2023-04-16T15:06:29.809Z,17.73
2023-04-16T15:08:02.372Z,16.07
2023-04-16T15:09:34.914Z,16.67
2023-04-16T15:11:06.851Z,16.88
2023-04-16T15:12:39.053Z,16.90
2023-04-16T15:14:11.157Z,15.68
2023-04-16T15:15:43.722Z,15.85
2023-04-16T15:17:15.661Z,15.85
2023-04-16T15:18:47.935Z,15.83
2023-04-16T15:20:19.860Z,15.45
2023-04-16T15:21:51.966Z,15.10
2023-04-16T15:23:23.938Z,15.23
2023-04-16T15:24:55.837Z,16.00
2023-04-16T15:26:31.250Z,16.65
2023-04-16T15:28:03.212Z,16.00
2023-04-16T15:29:35.716Z,15.75
2023-04-16T15:31:07.739Z,16.13
2023-04-16T15:32:39.665Z,15.45
2023-04-16T15:34:11.750Z,15.85
2023-04-16T15:35:44.324Z,15.40
2023-04-16T15:37:16.378Z,16.65
2023-04-16T15:38:48.324Z,14.77
2023-04-16T15:40:21.101Z,14.87
2023-04-16T15:42:01.504Z,15.02
2023-04-16T15:43:34.855Z,16.33
2023-04-16T15:45:06.987Z,14.83
2023-04-16T15:46:38.946Z,18.00
2023-04-16T15:48:11.001Z,15.48
2023-04-16T15:49:42.917Z,16.52
2023-04-16T15:51:14.904Z,15.60
2023-04-16T15:52:47.392Z,16.10
2023-04-16T15:54:19.519Z,15.35
2023-04-16T15:55:53.865Z,15.43
2023-04-16T15:57:25.753Z,15.10
2023-04-16T15:58:57.701Z,16.00
2023-04-16T16:00:29.612Z,15.88
2023-04-16T16:02:01.634Z,16.33
2023-04-16T16:03:36.089Z,16.67
2023-04-16T16:05:13.022Z,15.93
2023-04-16T16:06:44.939Z,16.67
2023-04-16T16:08:16.888Z,16.17
2023-04-16T16:09:48.796Z,17.17
2023-04-16T16:11:21.504Z,15.98
2023-04-16T16:12:53.966Z,16.65
2023-04-16T16:14:27.048Z,16.60
2023-04-16T16:15:59.152Z,15.73
2023-04-16T16:17:31.316Z,16.83
2023-04-16T16:19:03.334Z,16.55
2023-04-16T16:20:35.416Z,16.08
2023-04-16T16:22:08.054Z,16.58
2023-04-16T16:23:39.991Z,14.60
2023-04-16T16:25:11.913Z,15.40
2023-04-16T16:26:43.793Z,15.47
2023-04-16T16:28:15.808Z,14.93
2023-04-16T16:29:47.783Z,14.48
2023-04-16T16:31:19.771Z,14.82
2023-04-16T16:32:51.780Z,14.90
2023-04-16T16:34:23.752Z,15.70
2023-04-16T16:35:55.662Z,15.25
2023-04-16T16:37:28.986Z,15.10
2023-04-16T16:39:00.889Z,15.40
2023-04-16T16:40:33.025Z,15.70
2023-04-16T16:42:05.015Z,15.75
2023-04-16T16:43:36.986Z,16.67
2023-04-16T16:45:09.613Z,17.17
2023-04-16T16:46:41.618Z,16.20
2023-04-16T16:48:13.535Z,16.40
2023-04-16T16:49:45.752Z,17.90
2023-04-16T16:51:19.141Z,18.65
2023-04-16T16:52:51.204Z,17.17
2023-04-16T16:54:23.131Z,18.30
2023-04-16T16:55:54.990Z,17.93
2023-04-16T16:57:27.340Z,19.48
2023-04-16T16:58:59.271Z,19.20
2023-04-16T17:00:31.416Z,18.97
2023-04-16T17:02:03.426Z,18.02
2023-04-16T17:03:35.840Z,19.73
2023-04-16T17:05:08.178Z,19.55
2023-04-16T17:06:40.357Z,18.67
2023-04-16T17:08:12.589Z,20.10
2023-04-16T17:09:44.590Z,18.92
2023-04-16T17:11:18.015Z,19.48
2023-04-16T17:12:50.825Z,19.00
2023-04-16T17:14:22.888Z,17.75
2023-04-16T17:15:54.931Z,17.73
2023-04-16T17:17:27.999Z,17.52
2023-04-16T17:19:01.576Z,17.63
2023-04-16T17:20:34.159Z,17.88
2023-04-16T17:22:06.347Z,17.65
2023-04-16T17:23:41.029Z,19.75
2023-04-16T17:25:13.397Z,17.77
2023-04-16T17:26:45.421Z,18.08
2023-04-16T17:28:17.480Z,18.50
2023-04-16T17:29:49.371Z,17.80
2023-04-16T17:31:21.767Z,17.07
2023-04-16T17:32:54.099Z,17.20
2023-04-16T17:34:26.102Z,16.83
2023-04-16T17:35:58.026Z,17.40
2023-04-16T17:37:30.068Z,17.43
2023-04-16T17:39:02.686Z,17.85
2023-04-16T17:40:34.687Z,17.80
2023-04-16T17:42:06.741Z,17.10
2023-04-16T17:43:38.839Z,17.00
2023-04-16T17:45:11.223Z,17.27
2023-04-16T17:46:43.199Z,17.23
2023-04-16T17:48:15.240Z,17.75
2023-04-16T17:49:47.257Z,16.77
2023-04-16T17:51:19.260Z,16.90
2023-04-16T17:52:51.506Z,15.80
2023-04-16T17:54:24.621Z,16.95
2023-04-16T17:55:57.031Z,17.65
2023-04-16T17:57:29.162Z,16.65
2023-04-16T17:59:01.521Z,17.63
2023-04-16T18:00:39.177Z,16.95
2023-04-16T18:02:11.307Z,17.25
2023-04-16T18:03:44.495Z,16.58
2023-04-16T18:05:16.898Z,16.38
2023-04-16T18:06:49.061Z,16.60
2023-04-16T18:08:23.137Z,15.55
2023-04-16T18:09:55.071Z,15.55
2023-04-16T18:11:28.439Z,16.58
2023-04-16T18:13:01.978Z,17.27
2023-04-16T18:14:38.928Z,16.33
2023-04-16T18:16:17.538Z,16.77
2023-04-16T18:17:49.606Z,17.23
2023-04-16T18:19:21.679Z,16.30
2023-04-16T18:20:53.601Z,17.38
2023-04-16T18:22:27.479Z,16.23
2023-04-16T18:24:01.171Z,14.85
2023-04-16T18:25:40.338Z,16.60
2023-04-16T18:27:12.636Z,17.42
2023-04-16T18:28:45.424Z,16.35
2023-04-16T18:30:23.456Z,17.50
2023-04-16T18:31:59.170Z,15.88
2023-04-16T18:35:07.694Z,16.13
2023-04-16T18:36:39.610Z,15.88
2023-04-16T18:38:13.407Z,15.07
2023-04-16T18:39:45.553Z,16.13
2023-04-16T18:41:18.496Z,14.68
2023-04-16T18:42:50.616Z,16.50
2023-04-16T18:44:23.429Z,15.77
2023-04-16T18:47:27.489Z,16.13
2023-04-16T18:48:59.810Z,16.33
2023-04-16T18:50:32.310Z,15.32
2023-04-16T18:52:04.372Z,15.25
2023-04-16T18:53:36.450Z,17.50
2023-04-16T18:55:08.787Z,15.75
2023-04-16T18:56:40.683Z,16.30
2023-04-16T18:58:12.585Z,15.33
2023-04-16T18:59:44.633Z,15.50
2023-04-16T19:01:16.851Z,16.88
2023-04-16T19:02:48.982Z,15.90
2023-04-16T19:04:21.138Z,16.30
2023-04-16T19:05:53.882Z,16.15
2023-04-16T19:07:25.819Z,16.38
2023-04-16T19:08:57.827Z,16.40
2023-04-16T19:10:29.932Z,16.25
2023-04-16T19:12:02.999Z,15.25
2023-04-16T19:13:34.849Z,15.60
2023-04-16T19:15:12.148Z,14.63
2023-04-16T19:16:45.804Z,16.70
2023-04-16T19:18:17.868Z,17.10
2023-04-16T19:19:49.900Z,17.85
2023-04-16T19:21:21.841Z,16.33
2023-04-16T19:22:53.804Z,16.57
2023-04-16T19:24:25.806Z,17.00
2023-04-16T19:25:58.055Z,16.15
2023-04-16T19:27:30.197Z,16.63
2023-04-16T19:29:02.162Z,17.33
2023-04-16T19:30:34.237Z,15.95
2023-04-16T19:32:06.389Z,17.92
2023-04-16T19:33:38.380Z,16.85
2023-04-16T19:35:10.964Z,17.23
2023-04-16T19:36:43.045Z,17.15
2023-04-16T19:38:15.045Z,17.15
2023-04-16T19:39:47.023Z,17.47
2023-04-16T19:41:18.969Z,17.83
2023-04-16T19:42:50.843Z,17.83
2023-04-16T19:44:23.446Z,17.93
2023-04-16T19:45:55.426Z,18.67
2023-04-16T19:47:28.199Z,16.60
2023-04-16T19:49:00.096Z,17.15
2023-04-16T19:50:32.052Z,17.33
2023-04-16T19:52:04.222Z,18.37
2023-04-16T19:53:36.736Z,18.15
2023-04-16T19:55:09.061Z,18.60
2023-04-16T19:56:41.023Z,17.13
2023-04-16T19:58:14.748Z,18.52
2023-04-16T19:59:46.710Z,17.10
2023-04-16T20:01:18.753Z,18.50
2023-04-16T20:02:50.891Z,18.55
2023-04-16T20:04:22.888Z,19.95
2023-04-16T20:05:54.896Z,18.23
2023-04-16T20:07:31.964Z,18.48
2023-04-16T20:09:05.149Z,17.83
2023-04-16T20:10:44.750Z,18.55
2023-04-16T20:12:18.769Z,19.35
2023-04-16T20:13:54.601Z,18.17
2023-04-16T20:16:58.550Z,19.08
2023-04-16T20:18:30.591Z,18.50
2023-04-16T20:20:10.019Z,19.57
2023-04-16T20:21:43.442Z,19.38
2023-04-16T20:23:15.698Z,17.77
2023-04-16T20:24:48.203Z,18.70
2023-04-16T20:26:20.292Z,18.15
2023-04-16T20:27:52.559Z,18.63
2023-04-16T20:29:24.804Z,19.38
2023-04-16T20:30:56.825Z,18.30